sensor_id;sensor_type;location;lat;lon;timestamp;pressure;altitude;pressure_sealevel;temperature;humidity
17821;BME280;9035;42.554;23.188;2022-07-23T00:01:36;90420.28;;;23.36;33.15
17821;BME280;9035;42.554;23.188;2022-07-23T00:04:02;90411.13;;;23.51;32.86
17821;BME280;9035;42.554;23.188;2022-07-23T00:06:29;90407.28;;;23.59;32.99
17821;BME280;9035;42.554;23.188;2022-07-23T00:08:56;90406.53;;;23.58;32.97
17821;BME280;9035;42.554;23.188;2022-07-23T00:11:22;90407.31;;;23.52;32.75
17821;BME280;9035;42.554;23.188;2022-07-23T00:13:49;90410.34;;;23.54;32.54
17821;BME280;9035;42.554;23.188;2022-07-23T00:16:17;90406.59;;;23.48;33.20
17821;BME280;9035;42.554;23.188;2022-07-23T00:18:44;90405.38;;;23.59;33.03
17821;BME280;9035;42.554;23.188;2022-07-23T00:21:11;90404.97;;;23.61;33.28
17821;BME280;9035;42.554;23.188;2022-07-23T00:23:38;90404.31;;;23.50;33.19
17821;BME280;9035;42.554;23.188;2022-07-23T00:26:04;90407.72;;;23.47;32.99
17821;BME280;9035;42.554;23.188;2022-07-23T00:28:33;90406.53;;;23.58;32.84
17821;BME280;9035;42.554;23.188;2022-07-23T00:30:59;90408.41;;;23.61;33.00
17821;BME280;9035;42.554;23.188;2022-07-23T00:33:29;90401.97;;;23.62;33.28
17821;BME280;9035;42.554;23.188;2022-07-23T00:35:56;90395.19;;;23.58;33.33
17821;BME280;9035;42.554;23.188;2022-07-23T00:38:23;90399.25;;;23.69;32.67
17821;BME280;9035;42.554;23.188;2022-07-23T00:40:49;90397.41;;;23.63;33.40
17821;BME280;9035;42.554;23.188;2022-07-23T00:43:16;90402.63;;;23.73;33.06
17821;BME280;9035;42.554;23.188;2022-07-23T00:45:43;90389.03;;;23.68;33.22
17821;BME280;9035;42.554;23.188;2022-07-23T00:48:10;90385.59;;;23.78;33.08
17821;BME280;9035;42.554;23.188;2022-07-23T00:50:38;90390.19;;;23.74;33.31
17821;BME280;9035;42.554;23.188;2022-07-23T00:53:05;90384.06;;;23.84;33.23
17821;BME280;9035;42.554;23.188;2022-07-23T00:55:33;90390.47;;;23.86;32.89
17821;BME280;9035;42.554;23.188;2022-07-23T00:58:01;90390.53;;;23.79;33.56
17821;BME280;9035;42.554;23.188;2022-07-23T01:00:29;90396.19;;;23.78;33.69
17821;BME280;9035;42.554;23.188;2022-07-23T01:02:55;90393.47;;;23.85;33.94
17821;BME280;9035;42.554;23.188;2022-07-23T01:05:22;90388.56;;;23.87;33.82
17821;BME280;9035;42.554;23.188;2022-07-23T01:07:51;90393.56;;;23.71;34.12
17821;BME280;9035;42.554;23.188;2022-07-23T01:10:18;90394.31;;;23.78;33.94
17821;BME280;9035;42.554;23.188;2022-07-23T01:12:57;90397.63;;;23.86;33.43
17821;BME280;9035;42.554;23.188;2022-07-23T01:15:24;90396.19;;;23.78;34.14
17821;BME280;9035;42.554;23.188;2022-07-23T01:17:51;90390.91;;;23.74;33.75
17821;BME280;9035;42.554;23.188;2022-07-23T01:20:18;90393.56;;;23.71;34.32
17821;BME280;9035;42.554;23.188;2022-07-23T01:22:47;90392.44;;;23.72;33.83
17821;BME280;9035;42.554;23.188;2022-07-23T01:25:14;90388.63;;;23.73;34.38
17821;BME280;9035;42.554;23.188;2022-07-23T01:27:41;90387.88;;;23.79;34.16
17821;BME280;9035;42.554;23.188;2022-07-23T01:30:09;90388.97;;;23.82;33.77
17821;BME280;9035;42.554;23.188;2022-07-23T01:32:36;90367.47;;;23.69;34.12
17821;BME280;9035;42.554;23.188;2022-07-23T01:35:03;90383.75;;;23.68;34.19
17821;BME280;9035;42.554;23.188;2022-07-23T01:37:30;90381.84;;;23.75;34.65
17821;BME280;9035;42.554;23.188;2022-07-23T01:39:58;90390.88;;;23.78;34.74
17821;BME280;9035;42.554;23.188;2022-07-23T01:42:25;90382.94;;;23.78;34.93
17821;BME280;9035;42.554;23.188;2022-07-23T01:44:51;90386.72;;;23.73;34.70
17821;BME280;9035;42.554;23.188;2022-07-23T01:47:18;90379.25;;;23.65;34.90
17821;BME280;9035;42.554;23.188;2022-07-23T01:49:45;90389.88;;;23.58;35.63
17821;BME280;9035;42.554;23.188;2022-07-23T01:52:12;90390.34;;;23.46;35.28
17821;BME280;9035;42.554;23.188;2022-07-23T01:54:39;90379.78;;;23.39;35.67
17821;BME280;9035;42.554;23.188;2022-07-23T01:57:08;90386.31;;;23.24;35.24
17821;BME280;9035;42.554;23.188;2022-07-23T01:59:35;90387.44;;;23.27;36.36
17821;BME280;9035;42.554;23.188;2022-07-23T02:02:02;90389.31;;;23.30;35.60
17821;BME280;9035;42.554;23.188;2022-07-23T02:04:30;90387.84;;;23.25;36.21
17821;BME280;9035;42.554;23.188;2022-07-23T02:07:00;90387.44;;;23.27;36.15
17821;BME280;9035;42.554;23.188;2022-07-23T02:09:27;90384.88;;;23.13;35.70
17821;BME280;9035;42.554;23.188;2022-07-23T02:11:54;90394.66;;;23.19;37.40
17821;BME280;9035;42.554;23.188;2022-07-23T02:14:22;90399.59;;;23.17;36.64
17821;BME280;9035;42.554;23.188;2022-07-23T02:16:49;90393.97;;;23.12;37.50
17821;BME280;9035;42.554;23.188;2022-07-23T02:19:16;90395.88;;;23.01;37.18
17821;BME280;9035;42.554;23.188;2022-07-23T02:21:43;90395.47;;;23.02;37.80
17821;BME280;9035;42.554;23.188;2022-07-23T02:24:09;90397.78;;;22.97;38.17
17821;BME280;9035;42.554;23.188;2022-07-23T02:26:36;90400.44;;;22.93;37.02
17821;BME280;9035;42.554;23.188;2022-07-23T02:29:03;90398.97;;;22.85;37.01
17821;BME280;9035;42.554;23.188;2022-07-23T02:31:32;90400.47;;;22.83;37.10
17821;BME280;9035;42.554;23.188;2022-07-23T02:33:59;90366.91;;;22.73;36.88
17821;BME280;9035;42.554;23.188;2022-07-23T02:36:26;90391.38;;;22.98;37.69
17821;BME280;9035;42.554;23.188;2022-07-23T02:38:53;90394.75;;;22.95;37.23
17821;BME280;9035;42.554;23.188;2022-07-23T02:41:19;90392.13;;;22.91;37.41
17821;BME280;9035;42.554;23.188;2022-07-23T02:43:46;90394.38;;;22.93;37.63
17821;BME280;9035;42.554;23.188;2022-07-23T02:46:13;90401.97;;;22.84;37.99
17821;BME280;9035;42.554;23.188;2022-07-23T02:48:41;90403.88;;;22.83;37.95
17821;BME280;9035;42.554;23.188;2022-07-23T02:51:08;90405.78;;;22.79;37.63
17821;BME280;9035;42.554;23.188;2022-07-23T02:53:35;90407.72;;;22.68;37.58
17821;BME280;9035;42.554;23.188;2022-07-23T02:56:02;90406.94;;;22.75;37.80
17821;BME280;9035;42.554;23.188;2022-07-23T02:58:29;90410.72;;;22.77;38.01
17821;BME280;9035;42.554;23.188;2022-07-23T03:00:56;90414.06;;;22.85;37.55
17821;BME280;9035;42.554;23.188;2022-07-23T03:03:22;90411.06;;;22.83;37.51
17821;BME280;9035;42.554;23.188;2022-07-23T03:05:50;90409.19;;;22.80;36.79
17821;BME280;9035;42.554;23.188;2022-07-23T03:08:17;90406.19;;;22.78;36.70
17821;BME280;9035;42.554;23.188;2022-07-23T03:10:44;90409.19;;;22.80;36.63
17821;BME280;9035;42.554;23.188;2022-07-23T03:13:11;90408.41;;;22.83;37.90
17821;BME280;9035;42.554;23.188;2022-07-23T03:15:37;90410.72;;;22.77;37.06
17821;BME280;9035;42.554;23.188;2022-07-23T03:18:04;90419.75;;;22.83;37.07
17821;BME280;9035;42.554;23.188;2022-07-23T03:20:31;90413.72;;;22.79;37.64
17821;BME280;9035;42.554;23.188;2022-07-23T03:22:59;90420.53;;;22.77;37.77
17821;BME280;9035;42.554;23.188;2022-07-23T03:25:26;90412.28;;;22.61;37.44
17821;BME280;9035;42.554;23.188;2022-07-23T03:27:53;90421.31;;;22.70;38.33
17821;BME280;9035;42.554;23.188;2022-07-23T03:30:20;90414.16;;;22.67;37.62
17821;BME280;9035;42.554;23.188;2022-07-23T03:32:46;90421.69;;;22.72;38.16
17821;BME280;9035;42.554;23.188;2022-07-23T03:35:13;90414.53;;;22.63;38.95
17821;BME280;9035;42.554;23.188;2022-07-23T03:37:40;90422.88;;;22.54;38.12
17821;BME280;9035;42.554;23.188;2022-07-23T03:40:09;90417.59;;;22.54;38.12
17821;BME280;9035;42.554;23.188;2022-07-23T03:42:36;90420.97;;;22.58;39.50
17821;BME280;9035;42.554;23.188;2022-07-23T03:45:05;90418.34;;;22.51;38.31
17821;BME280;9035;42.554;23.188;2022-07-23T03:47:32;90421.78;;;22.34;38.65
17821;BME280;9035;42.554;23.188;2022-07-23T03:49:59;90428.53;;;22.46;39.04
17821;BME280;9035;42.554;23.188;2022-07-23T03:52:26;90430.44;;;22.49;38.58
17821;BME280;9035;42.554;23.188;2022-07-23T03:54:53;90423.25;;;22.56;38.69
17821;BME280;9035;42.554;23.188;2022-07-23T03:57:21;90423.25;;;22.56;39.31
17821;BME280;9035;42.554;23.188;2022-07-23T03:59:48;90431.53;;;22.58;39.99
17821;BME280;9035;42.554;23.188;2022-07-23T04:02:14;90433.81;;;22.56;39.91
17821;BME280;9035;42.554;23.188;2022-07-23T04:04:41;90430.03;;;22.61;40.15
17821;BME280;9035;42.554;23.188;2022-07-23T04:07:08;90432.69;;;22.54;40.32
17821;BME280;9035;42.554;23.188;2022-07-23T04:09:34;90432.69;;;22.54;40.03
17821;BME280;9035;42.554;23.188;2022-07-23T04:12:01;90424.75;;;22.57;40.75
17821;BME280;9035;42.554;23.188;2022-07-23T04:14:29;90432.69;;;22.61;40.18
17821;BME280;9035;42.554;23.188;2022-07-23T04:16:56;90432.66;;;22.57;40.71
17821;BME280;9035;42.554;23.188;2022-07-23T04:19:23;90430.78;;;22.58;41.34
17821;BME280;9035;42.554;23.188;2022-07-23T04:21:50;90431.94;;;22.53;41.69
17821;BME280;9035;42.554;23.188;2022-07-23T04:24:17;90431.53;;;22.58;41.64
17821;BME280;9035;42.554;23.188;2022-07-23T04:26:44;90425.50;;;22.58;41.72
17821;BME280;9035;42.554;23.188;2022-07-23T04:29:11;90439.13;;;22.53;41.82
17821;BME280;9035;42.554;23.188;2022-07-23T04:31:39;90441.03;;;22.45;41.79
17821;BME280;9035;42.554;23.188;2022-07-23T04:34:06;90445.94;;;22.26;43.26
17821;BME280;9035;42.554;23.188;2022-07-23T04:36:32;90439.94;;;22.32;43.13
17821;BME280;9035;42.554;23.188;2022-07-23T04:38:59;90450.47;;;22.39;43.36
17821;BME280;9035;42.554;23.188;2022-07-23T04:41:26;90451.22;;;22.36;43.55
17821;BME280;9035;42.554;23.188;2022-07-23T04:43:52;90443.66;;;22.52;43.47
17821;BME280;9035;42.554;23.188;2022-07-23T04:46:19;90444.78;;;22.44;44.07
17821;BME280;9035;42.554;23.188;2022-07-23T04:48:47;90444.03;;;22.51;44.06
17821;BME280;9035;42.554;23.188;2022-07-23T04:51:14;90442.50;;;22.60;44.23
17821;BME280;9035;42.554;23.188;2022-07-23T04:53:41;90451.19;;;22.57;45.27
17821;BME280;9035;42.554;23.188;2022-07-23T04:56:08;90444.00;;;22.58;45.85
17821;BME280;9035;42.554;23.188;2022-07-23T04:58:34;90449.28;;;22.61;45.46
17821;BME280;9035;42.554;23.188;2022-07-23T05:01:01;90448.13;;;22.69;45.89
17821;BME280;9035;42.554;23.188;2022-07-23T05:03:28;90456.06;;;22.69;46.22
17821;BME280;9035;42.554;23.188;2022-07-23T05:05:56;90453.81;;;22.71;45.87
17821;BME280;9035;42.554;23.188;2022-07-23T05:08:23;90443.22;;;22.71;47.00
17821;BME280;9035;42.554;23.188;2022-07-23T05:10:50;90446.56;;;22.82;46.82
17821;BME280;9035;42.554;23.188;2022-07-23T05:13:17;90459.81;;;22.85;46.11
17821;BME280;9035;42.554;23.188;2022-07-23T05:15:45;90446.13;;;23.01;46.13
17821;BME280;9035;42.554;23.188;2022-07-23T05:18:11;90454.06;;;23.11;46.63
17821;BME280;9035;42.554;23.188;2022-07-23T05:20:38;90454.84;;;23.08;45.77
17821;BME280;9035;42.554;23.188;2022-07-23T05:23:07;90452.09;;;23.29;46.12
17821;BME280;9035;42.554;23.188;2022-07-23T05:25:34;90464.50;;;23.43;46.04
17821;BME280;9035;42.554;23.188;2022-07-23T05:28:00;90462.25;;;23.41;45.26
17821;BME280;9035;42.554;23.188;2022-07-23T05:30:27;90464.78;;;23.58;44.79
17821;BME280;9035;42.554;23.188;2022-07-23T05:32:54;90467.00;;;23.74;45.27
17821;BME280;9035;42.554;23.188;2022-07-23T05:35:21;90470.69;;;23.87;45.87
17821;BME280;9035;42.554;23.188;2022-07-23T05:37:48;90462.69;;;23.94;44.78
17821;BME280;9035;42.554;23.188;2022-07-23T05:40:16;90466.06;;;23.98;44.37
17821;BME280;9035;42.554;23.188;2022-07-23T05:42:43;90470.91;;;24.06;44.34
17821;BME280;9035;42.554;23.188;2022-07-23T05:45:10;90472.00;;;24.16;43.13
17821;BME280;9035;42.554;23.188;2022-07-23T05:47:42;90474.63;;;24.19;43.14
17821;BME280;9035;42.554;23.188;2022-07-23T05:50:10;90471.09;;;24.32;43.19
17821;BME280;9035;42.554;23.188;2022-07-23T05:52:36;90477.03;;;24.47;43.24
17821;BME280;9035;42.554;23.188;2022-07-23T05:55:04;90470.19;;;24.53;42.61
17821;BME280;9035;42.554;23.188;2022-07-23T05:57:33;90474.00;;;24.52;42.54
17821;BME280;9035;42.554;23.188;2022-07-23T06:00:00;90477.63;;;24.65;43.79
17821;BME280;9035;42.554;23.188;2022-07-23T06:02:26;90468.84;;;24.75;43.65
17821;BME280;9035;42.554;23.188;2022-07-23T06:04:53;90479.41;;;24.78;43.24
17821;BME280;9035;42.554;23.188;2022-07-23T06:07:20;90472.84;;;24.90;43.55
17821;BME280;9035;42.554;23.188;2022-07-23T06:09:47;90471.97;;;25.00;43.36
17821;BME280;9035;42.554;23.188;2022-07-23T06:12:14;90467.31;;;25.14;42.65
17821;BME280;9035;42.554;23.188;2022-07-23T06:14:43;90467.22;;;25.21;42.52
17821;BME280;9035;42.554;23.188;2022-07-23T06:17:09;90466.81;;;25.22;41.62
17821;BME280;9035;42.554;23.188;2022-07-23T06:19:36;90461.81;;;25.28;41.68
17821;BME280;9035;42.554;23.188;2022-07-23T06:22:03;90432.78;;;25.14;41.25
17821;BME280;9035;42.554;23.188;2022-07-23T06:24:30;90474.22;;;25.38;41.49
17821;BME280;9035;42.554;23.188;2022-07-23T06:26:57;90463.09;;;25.46;40.37
17821;BME280;9035;42.554;23.188;2022-07-23T06:29:23;90451.69;;;25.49;39.48
17821;BME280;9035;42.554;23.188;2022-07-23T06:31:52;90467.28;;;25.74;37.73
17821;BME280;9035;42.554;23.188;2022-07-23T06:34:18;90461.59;;;25.75;38.21
17821;BME280;9035;42.554;23.188;2022-07-23T06:36:45;90466.06;;;25.82;39.44
17821;BME280;9035;42.554;23.188;2022-07-23T06:39:12;90455.66;;;25.64;38.91
17821;BME280;9035;42.554;23.188;2022-07-23T06:41:39;90468.72;;;25.82;38.81
17821;BME280;9035;42.554;23.188;2022-07-23T06:44:05;90472.09;;;25.86;38.11
17821;BME280;9035;42.554;23.188;2022-07-23T06:46:33;90457.69;;;25.83;37.41
17821;BME280;9035;42.554;23.188;2022-07-23T06:49:01;90474.63;;;25.93;37.98
17821;BME280;9035;42.554;23.188;2022-07-23T06:51:29;90462.34;;;26.02;37.88
17821;BME280;9035;42.554;23.188;2022-07-23T06:53:56;90465.53;;;26.16;38.39
17821;BME280;9035;42.554;23.188;2022-07-23T06:56:23;90465.78;;;26.25;37.84
17821;BME280;9035;42.554;23.188;2022-07-23T06:58:50;90461.56;;;26.28;38.83
17821;BME280;9035;42.554;23.188;2022-07-23T07:01:17;90456.59;;;26.30;39.27
17821;BME280;9035;42.554;23.188;2022-07-23T07:03:44;90468.28;;;26.36;38.55
17821;BME280;9035;42.554;23.188;2022-07-23T07:06:14;90469.75;;;26.40;38.50
17821;BME280;9035;42.554;23.188;2022-07-23T07:08:41;90466.59;;;26.49;37.58
17821;BME280;9035;42.554;23.188;2022-07-23T07:11:08;90462.00;;;26.49;37.26
17821;BME280;9035;42.554;23.188;2022-07-23T07:13:35;90460.78;;;26.54;36.79
17821;BME280;9035;42.554;23.188;2022-07-23T07:16:02;90464.53;;;26.56;37.87
17821;BME280;9035;42.554;23.188;2022-07-23T07:18:29;90466.63;;;26.68;38.74
17821;BME280;9035;42.554;23.188;2022-07-23T07:20:56;90463.63;;;26.66;38.59
17821;BME280;9035;42.554;23.188;2022-07-23T07:23:25;90465.63;;;26.81;38.11
17821;BME280;9035;42.554;23.188;2022-07-23T07:25:52;90468.97;;;26.85;38.21
17821;BME280;9035;42.554;23.188;2022-07-23T07:28:18;90470.19;;;27.04;37.68
17821;BME280;9035;42.554;23.188;2022-07-23T07:30:45;90466.06;;;26.99;38.49
17821;BME280;9035;42.554;23.188;2022-07-23T07:33:12;90468.63;;;27.06;37.71
17821;BME280;9035;42.554;23.188;2022-07-23T07:35:38;90455.91;;;27.14;37.49
17821;BME280;9035;42.554;23.188;2022-07-23T07:38:05;90461.94;;;27.18;37.75
17821;BME280;9035;42.554;23.188;2022-07-23T07:40:34;90465.56;;;27.27;37.18
17821;BME280;9035;42.554;23.188;2022-07-23T07:43:01;90461.31;;;27.30;37.21
17821;BME280;9035;42.554;23.188;2022-07-23T07:45:28;90460.84;;;27.35;36.75
17821;BME280;9035;42.554;23.188;2022-07-23T07:47:55;90460.63;;;27.45;36.54
17821;BME280;9035;42.554;23.188;2022-07-23T07:50:22;90460.34;;;27.59;36.79
17821;BME280;9035;42.554;23.188;2022-07-23T07:52:49;90465.88;;;27.68;37.42
17821;BME280;9035;42.554;23.188;2022-07-23T07:55:19;90457.53;;;27.66;37.62
17821;BME280;9035;42.554;23.188;2022-07-23T07:57:47;90452.56;;;27.68;38.73
17821;BME280;9035;42.554;23.188;2022-07-23T08:00:14;90451.75;;;27.71;36.39
17821;BME280;9035;42.554;23.188;2022-07-23T08:02:45;90454.53;;;27.83;36.92
17821;BME280;9035;42.554;23.188;2022-07-23T08:05:13;90424.50;;;27.79;36.14
17821;BME280;9035;42.554;23.188;2022-07-23T08:07:40;90451.38;;;28.04;37.54
17821;BME280;9035;42.554;23.188;2022-07-23T08:10:08;90462.47;;;28.03;36.84
17821;BME280;9035;42.554;23.188;2022-07-23T08:12:40;90454.00;;;28.24;36.31
17821;BME280;9035;42.554;23.188;2022-07-23T08:15:09;90450.94;;;28.25;37.94
17821;BME280;9035;42.554;23.188;2022-07-23T08:17:36;90463.03;;;28.30;36.96
17821;BME280;9035;42.554;23.188;2022-07-23T08:20:04;90457.78;;;28.26;37.02
17821;BME280;9035;42.554;23.188;2022-07-23T08:22:48;90451.50;;;28.48;36.57
17821;BME280;9035;42.554;23.188;2022-07-23T08:25:15;90458.75;;;28.48;35.61
17821;BME280;9035;42.554;23.188;2022-07-23T08:27:42;90451.75;;;28.54;34.69
17821;BME280;9035;42.554;23.188;2022-07-23T08:30:11;90457.34;;;28.59;34.81
17821;BME280;9035;42.554;23.188;2022-07-23T08:32:51;90453.06;;;28.62;36.02
17821;BME280;9035;42.554;23.188;2022-07-23T08:35:22;90444.16;;;28.68;36.79
17821;BME280;9035;42.554;23.188;2022-07-23T08:37:50;90462.84;;;28.68;37.52
17821;BME280;9035;42.554;23.188;2022-07-23T08:40:17;90456.88;;;28.77;38.50
17821;BME280;9035;42.554;23.188;2022-07-23T08:42:47;90454.84;;;28.84;36.93
17821;BME280;9035;42.554;23.188;2022-07-23T08:45:18;90449.88;;;28.99;37.49
17821;BME280;9035;42.554;23.188;2022-07-23T08:47:51;90455.97;;;28.99;36.99
17821;BME280;9035;42.554;23.188;2022-07-23T08:50:18;90448.72;;;29.00;36.06
17821;BME280;9035;42.554;23.188;2022-07-23T08:52:45;90459.50;;;28.96;35.18
17821;BME280;9035;42.554;23.188;2022-07-23T08:55:12;90455.81;;;28.90;34.14
17821;BME280;9035;42.554;23.188;2022-07-23T08:57:38;90450.63;;;28.99;35.37
17821;BME280;9035;42.554;23.188;2022-07-23T09:00:06;90453.00;;;29.10;34.04
17821;BME280;9035;42.554;23.188;2022-07-23T09:02:40;90450.91;;;29.17;34.29
17821;BME280;9035;42.554;23.188;2022-07-23T09:05:08;90459.25;;;29.19;33.30
17821;BME280;9035;42.554;23.188;2022-07-23T09:07:36;90451.69;;;29.18;32.30
17821;BME280;9035;42.554;23.188;2022-07-23T09:10:08;90451.47;;;29.25;33.52
17821;BME280;9035;42.554;23.188;2022-07-23T09:12:35;90450.38;;;29.38;32.26
17821;BME280;9035;42.554;23.188;2022-07-23T09:15:08;90460.44;;;29.46;31.78
17821;BME280;9035;42.554;23.188;2022-07-23T09:17:41;90456.91;;;29.37;32.22
17821;BME280;9035;42.554;23.188;2022-07-23T09:20:11;90458.94;;;29.45;32.29
17821;BME280;9035;42.554;23.188;2022-07-23T09:22:38;90453.00;;;29.54;32.23
17821;BME280;9035;42.554;23.188;2022-07-23T09:25:08;90462.28;;;29.49;32.95
17821;BME280;9035;42.554;23.188;2022-07-23T09:27:49;90453.53;;;29.61;31.20
17821;BME280;9035;42.554;23.188;2022-07-23T09:30:18;90454.81;;;29.69;30.92
17821;BME280;9035;42.554;23.188;2022-07-23T09:33:03;90462.09;;;29.69;31.69
17821;BME280;9035;42.554;23.188;2022-07-23T09:35:43;90458.72;;;29.93;31.21
17821;BME280;9035;42.554;23.188;2022-07-23T09:38:10;90456.38;;;29.95;30.58
17821;BME280;9035;42.554;23.188;2022-07-23T09:40:37;90447.50;;;29.98;31.36
17821;BME280;9035;42.554;23.188;2022-07-23T09:43:04;90441.41;;;29.98;30.72
17821;BME280;9035;42.554;23.188;2022-07-23T09:45:31;90451.03;;;30.20;29.77
17821;BME280;9035;42.554;23.188;2022-07-23T09:48:11;90445.47;;;30.14;31.41
17821;BME280;9035;42.554;23.188;2022-07-23T09:50:38;90444.19;;;30.19;30.53
17821;BME280;9035;42.554;23.188;2022-07-23T09:53:05;90442.69;;;30.30;29.37
17821;BME280;9035;42.554;23.188;2022-07-23T09:55:33;90442.88;;;30.36;29.73
17821;BME280;9035;42.554;23.188;2022-07-23T09:58:02;90436.91;;;30.44;29.91
17821;BME280;9035;42.554;23.188;2022-07-23T10:00:31;90442.16;;;30.35;29.53
17821;BME280;9035;42.554;23.188;2022-07-23T10:02:58;90444.28;;;30.40;31.86
17821;BME280;9035;42.554;23.188;2022-07-23T10:05:28;90443.84;;;30.54;31.72
17821;BME280;9035;42.554;23.188;2022-07-23T10:07:56;90433.22;;;30.63;29.72
17821;BME280;9035;42.554;23.188;2022-07-23T10:10:26;90437.28;;;30.68;29.28
17821;BME280;9035;42.554;23.188;2022-07-23T10:12:53;90429.50;;;30.61;26.76
17821;BME280;9035;42.554;23.188;2022-07-23T10:15:52;90429.91;;;30.72;29.85
17821;BME280;9035;42.554;23.188;2022-07-23T10:18:20;90424.41;;;30.88;27.60
17821;BME280;9035;42.554;23.188;2022-07-23T10:20:49;90421.78;;;30.97;28.23
17821;BME280;9035;42.554;23.188;2022-07-23T10:23:22;90427.81;;;30.88;26.43
17821;BME280;9035;42.554;23.188;2022-07-23T10:25:58;90436.69;;;30.98;27.47
17821;BME280;9035;42.554;23.188;2022-07-23T10:28:41;90423.41;;;30.94;26.75
17821;BME280;9035;42.554;23.188;2022-07-23T10:31:17;90430.56;;;30.97;27.69
17821;BME280;9035;42.554;23.188;2022-07-23T10:33:56;90431.13;;;31.04;26.25
17821;BME280;9035;42.554;23.188;2022-07-23T10:36:41;90429.31;;;31.23;25.43
17821;BME280;9035;42.554;23.188;2022-07-23T10:39:13;90420.09;;;31.45;24.65
17821;BME280;9035;42.554;23.188;2022-07-23T10:41:41;90430.34;;;31.59;23.84
17821;BME280;9035;42.554;23.188;2022-07-23T10:44:10;90412.19;;;31.63;24.81
17821;BME280;9035;42.554;23.188;2022-07-23T10:46:56;90414.50;;;31.74;25.21
17821;BME280;9035;42.554;23.188;2022-07-23T10:49:32;90409.50;;;31.93;28.23
17821;BME280;9035;42.554;23.188;2022-07-23T10:52:21;90408.88;;;32.11;27.40
17821;BME280;9035;42.554;23.188;2022-07-23T10:54:50;90416.59;;;31.79;23.53
17821;BME280;9035;42.554;23.188;2022-07-23T10:57:18;90407.84;;;31.87;25.70
17821;BME280;9035;42.554;23.188;2022-07-23T11:00:13;90399.00;;;32.08;25.32
17821;BME280;9035;42.554;23.188;2022-07-23T11:02:43;90400.31;;;32.43;26.14
17821;BME280;9035;42.554;23.188;2022-07-23T11:05:13;90387.47;;;32.47;25.88
17821;BME280;9035;42.554;23.188;2022-07-23T11:08:12;90399.69;;;32.39;25.41
17821;BME280;9035;42.554;23.188;2022-07-23T11:10:43;90392.09;;;32.37;24.53
17821;BME280;9035;42.554;23.188;2022-07-23T11:16:23;90381.47;;;32.82;25.52
17821;BME280;9035;42.554;23.188;2022-07-23T11:19:06;90386.38;;;32.66;24.50
17821;BME280;9035;42.554;23.188;2022-07-23T11:21:46;90382.81;;;32.86;26.48
17821;BME280;9035;42.554;23.188;2022-07-23T11:24:17;90378.63;;;33.12;26.97
17821;BME280;9035;42.554;23.188;2022-07-23T11:26:46;90385.34;;;33.35;25.55
17821;BME280;9035;42.554;23.188;2022-07-23T11:29:44;90393.00;;;33.36;23.17
17821;BME280;9035;42.554;23.188;2022-07-23T11:32:30;90380.56;;;33.48;22.76
17821;BME280;9035;42.554;23.188;2022-07-23T11:34:59;90378.91;;;33.68;24.09
17821;BME280;9035;42.554;23.188;2022-07-23T11:37:35;90382.81;;;33.67;23.71
17821;BME280;9035;42.554;23.188;2022-07-23T11:40:06;90373.63;;;33.82;24.54
17821;BME280;9035;42.554;23.188;2022-07-23T11:42:34;90376.88;;;33.95;24.20
17821;BME280;9035;42.554;23.188;2022-07-23T11:45:02;90369.00;;;34.24;24.36
17821;BME280;9035;42.554;23.188;2022-07-23T11:47:29;90369.00;;;34.24;20.99
17821;BME280;9035;42.554;23.188;2022-07-23T11:49:57;90375.03;;;34.19;21.01
17821;BME280;9035;42.554;23.188;2022-07-23T11:52:25;90368.53;;;34.35;21.24
17821;BME280;9035;42.554;23.188;2022-07-23T11:54:53;90372.06;;;34.40;19.88
17821;BME280;9035;42.554;23.188;2022-07-23T11:57:24;90361.53;;;34.51;20.54
17821;BME280;9035;42.554;23.188;2022-07-23T11:59:54;90357.94;;;34.78;20.23
17821;BME280;9035;42.554;23.188;2022-07-23T12:02:22;90357.81;;;34.96;20.36
17821;BME280;9035;42.554;23.188;2022-07-23T12:04:52;90361.66;;;34.80;21.40
17821;BME280;9035;42.554;23.188;2022-07-23T12:07:29;90357.66;;;34.76;20.23
17821;BME280;9035;42.554;23.188;2022-07-23T12:09:58;90355.38;;;34.98;20.74
17821;BME280;9035;42.554;23.188;2022-07-23T12:12:27;90361.88;;;35.15;19.66
17821;BME280;9035;42.554;23.188;2022-07-23T12:14:55;90354.41;;;35.33;18.92
17821;BME280;9035;42.554;23.188;2022-07-23T12:17:29;90359.44;;;35.40;18.70
17821;BME280;9035;42.554;23.188;2022-07-23T12:19:57;90352.59;;;35.53;18.92
17821;BME280;9035;42.554;23.188;2022-07-23T12:22:25;90352.03;;;35.64;18.25
17821;BME280;9035;42.554;23.188;2022-07-23T12:24:57;90352.50;;;35.62;19.68
17821;BME280;9035;42.554;23.188;2022-07-23T12:27:26;90333.47;;;35.71;19.60
17821;BME280;9035;42.554;23.188;2022-07-23T12:29:53;90336.91;;;36.01;22.39
17821;BME280;9035;42.554;23.188;2022-07-23T12:32:21;90323.59;;;36.11;21.53
17821;BME280;9035;42.554;23.188;2022-07-23T12:34:50;90336.63;;;36.13;20.24
17821;BME280;9035;42.554;23.188;2022-07-23T12:37:27;90337.69;;;36.35;19.45
17821;BME280;9035;42.554;23.188;2022-07-23T12:39:54;90329.22;;;36.42;20.66
17821;BME280;9035;42.554;23.188;2022-07-23T12:42:21;90332.47;;;36.46;20.09
17821;BME280;9035;42.554;23.188;2022-07-23T12:45:09;90323.56;;;36.80;19.32
17821;BME280;9035;42.554;23.188;2022-07-23T12:47:55;90323.50;;;36.94;20.02
17821;BME280;9035;42.554;23.188;2022-07-23T12:50:41;90321.59;;;37.20;20.21
17821;BME280;9035;42.554;23.188;2022-07-23T12:53:11;90325.25;;;37.37;19.90
17821;BME280;9035;42.554;23.188;2022-07-23T12:55:39;90326.47;;;37.36;18.84
17821;BME280;9035;42.554;23.188;2022-07-23T12:58:10;90316.38;;;37.62;18.65
17821;BME280;9035;42.554;23.188;2022-07-23T13:01:09;90316.59;;;37.84;18.59
17821;BME280;9035;42.554;23.188;2022-07-23T13:03:38;90319.22;;;38.04;18.65
17821;BME280;9035;42.554;23.188;2022-07-23T13:06:07;90314.97;;;38.23;17.85
17821;BME280;9035;42.554;23.188;2022-07-23T13:08:36;90324.38;;;38.27;16.77
17821;BME280;9035;42.554;23.188;2022-07-23T13:11:06;90315.56;;;38.38;17.10
17821;BME280;9035;42.554;23.188;2022-07-23T13:13:34;90320.03;;;38.46;17.82